sensor_id;sensor_type;location;lat;lon;timestamp;temperature;humidity
23186;DHT22;11761;51.324;4.590;2022-09-12T00:00:04;13.10;99.90
23186;DHT22;11761;51.324;4.590;2022-09-12T00:02:31;13.10;99.90
23186;DHT22;11761;51.324;4.590;2022-09-12T00:04:57;13.10;99.90
23186;DHT22;11761;51.324;4.590;2022-09-12T00:07:23;13.10;99.90
23186;DHT22;11761;51.324;4.590;2022-09-12T00:09:50;13.10;99.90
23186;DHT22;11761;51.324;4.590;2022-09-12T00:12:16;13.10;99.90
23186;DHT22;11761;51.324;4.590;2022-09-12T00:14:42;13.10;99.90
23186;DHT22;11761;51.324;4.590;2022-09-12T00:17:08;13.00;99.90
23186;DHT22;11761;51.324;4.590;2022-09-12T00:19:34;13.00;99.90
23186;DHT22;11761;51.324;4.590;2022-09-12T00:22:01;13.00;99.90
23186;DHT22;11761;51.324;4.590;2022-09-12T00:24:27;13.00;99.90
23186;DHT22;11761;51.324;4.590;2022-09-12T00:26:53;13.00;99.90
23186;DHT22;11761;51.324;4.590;2022-09-12T00:29:21;13.00;99.90
23186;DHT22;11761;51.324;4.590;2022-09-12T00:31:47;13.00;99.90
23186;DHT22;11761;51.324;4.590;2022-09-12T00:34:13;13.00;99.90
23186;DHT22;11761;51.324;4.590;2022-09-12T00:36:40;13.00;99.90
23186;DHT22;11761;51.324;4.590;2022-09-12T00:39:06;13.00;99.90
23186;DHT22;11761;51.324;4.590;2022-09-12T00:41:36;13.00;99.90
23186;DHT22;11761;51.324;4.590;2022-09-12T00:51:53;12.90;99.90
23186;DHT22;11761;51.324;4.590;2022-09-12T00:54:27;12.90;99.90
23186;DHT22;11761;51.324;4.590;2022-09-12T00:56:58;12.90;99.90
23186;DHT22;11761;51.324;4.590;2022-09-12T00:59:31;12.90;99.90
23186;DHT22;11761;51.324;4.590;2022-09-12T01:01:59;12.90;99.90
23186;DHT22;11761;51.324;4.590;2022-09-12T01:04:26;12.90;99.90
23186;DHT22;11761;51.324;4.590;2022-09-12T01:06:55;12.80;99.90
23186;DHT22;11761;51.324;4.590;2022-09-12T01:09:23;12.90;99.90
23186;DHT22;11761;51.324;4.590;2022-09-12T01:11:51;12.80;99.90
23186;DHT22;11761;51.324;4.590;2022-09-12T01:14:19;12.80;99.90
23186;DHT22;11761;51.324;4.590;2022-09-12T01:16:46;12.80;99.90
23186;DHT22;11761;51.324;4.590;2022-09-12T01:27:54;12.90;99.90
23186;DHT22;11761;51.324;4.590;2022-09-12T01:36:00;12.90;99.90
23186;DHT22;11761;51.324;4.590;2022-09-12T01:47:09;12.80;99.90
23186;DHT22;11761;51.324;4.590;2022-09-12T01:49:59;12.80;99.90
23186;DHT22;11761;51.324;4.590;2022-09-12T01:55:44;12.80;99.90
23186;DHT22;11761;51.324;4.590;2022-09-12T01:58:17;12.80;99.90
23186;DHT22;11761;51.324;4.590;2022-09-12T02:01:05;12.80;99.90
23186;DHT22;11761;51.324;4.590;2022-09-12T02:03:42;12.80;99.90
23186;DHT22;11761;51.324;4.590;2022-09-12T02:06:34;12.80;99.90
23186;DHT22;11761;51.324;4.590;2022-09-12T02:09:15;12.80;99.90
23186;DHT22;11761;51.324;4.590;2022-09-12T02:11:45;12.80;99.90
23186;DHT22;11761;51.324;4.590;2022-09-12T02:14:20;12.70;99.90
23186;DHT22;11761;51.324;4.590;2022-09-12T02:16:56;12.70;99.90
23186;DHT22;11761;51.324;4.590;2022-09-12T02:19:28;12.70;99.90
23186;DHT22;11761;51.324;4.590;2022-09-12T02:21:58;12.70;99.90
23186;DHT22;11761;51.324;4.590;2022-09-12T02:24:29;12.70;99.90
23186;DHT22;11761;51.324;4.590;2022-09-12T02:27:00;12.70;99.90
23186;DHT22;11761;51.324;4.590;2022-09-12T02:29:28;12.70;99.90
23186;DHT22;11761;51.324;4.590;2022-09-12T02:32:00;12.70;99.90
23186;DHT22;11761;51.324;4.590;2022-09-12T02:34:50;12.70;99.90
23186;DHT22;11761;51.324;4.590;2022-09-12T02:40:22;12.80;99.90
23186;DHT22;11761;51.324;4.590;2022-09-12T02:42:49;12.80;99.90
23186;DHT22;11761;51.324;4.590;2022-09-12T02:45:15;12.80;99.90
23186;DHT22;11761;51.324;4.590;2022-09-12T02:47:46;12.90;99.90
23186;DHT22;11761;51.324;4.590;2022-09-12T02:50:14;12.90;99.90
23186;DHT22;11761;51.324;4.590;2022-09-12T02:52:41;12.90;99.90
23186;DHT22;11761;51.324;4.590;2022-09-12T02:55:08;12.90;99.90
23186;DHT22;11761;51.324;4.590;2022-09-12T02:57:36;12.90;99.90
23186;DHT22;11761;51.324;4.590;2022-09-12T03:00:04;12.90;99.90
23186;DHT22;11761;51.324;4.590;2022-09-12T03:18:30;13.00;99.90
23186;DHT22;11761;51.324;4.590;2022-09-12T03:21:07;13.00;99.90
23186;DHT22;11761;51.324;4.590;2022-09-12T03:26:12;13.00;99.90
23186;DHT22;11761;51.324;4.590;2022-09-12T03:28:41;13.10;99.90
23186;DHT22;11761;51.324;4.590;2022-09-12T03:31:17;13.00;99.90
23186;DHT22;11761;51.324;4.590;2022-09-12T03:33:43;13.00;99.90
23186;DHT22;11761;51.324;4.590;2022-09-12T03:36:20;12.90;99.90
23186;DHT22;11761;51.324;4.590;2022-09-12T03:38:47;13.00;99.90
23186;DHT22;11761;51.324;4.590;2022-09-12T03:41:13;13.00;99.90
23186;DHT22;11761;51.324;4.590;2022-09-12T03:43:40;13.00;99.90
23186;DHT22;11761;51.324;4.590;2022-09-12T03:46:06;12.90;99.90
23186;DHT22;11761;51.324;4.590;2022-09-12T03:48:32;12.90;99.90
23186;DHT22;11761;51.324;4.590;2022-09-12T03:51:00;12.90;99.90
23186;DHT22;11761;51.324;4.590;2022-09-12T03:53:26;12.90;99.90
23186;DHT22;11761;51.324;4.590;2022-09-12T03:55:52;12.80;99.90
23186;DHT22;11761;51.324;4.590;2022-09-12T03:58:18;12.80;99.90
23186;DHT22;11761;51.324;4.590;2022-09-12T04:00:44;12.80;99.90
23186;DHT22;11761;51.324;4.590;2022-09-12T04:03:11;12.70;99.90
23186;DHT22;11761;51.324;4.590;2022-09-12T04:05:39;12.70;99.90
23186;DHT22;11761;51.324;4.590;2022-09-12T04:08:05;12.70;99.90
23186;DHT22;11761;51.324;4.590;2022-09-12T04:10:31;12.60;99.90
23186;DHT22;11761;51.324;4.590;2022-09-12T04:12:57;12.60;99.90
23186;DHT22;11761;51.324;4.590;2022-09-12T04:15:23;12.60;99.90
23186;DHT22;11761;51.324;4.590;2022-09-12T04:17:49;12.50;99.90
23186;DHT22;11761;51.324;4.590;2022-09-12T04:20:15;12.50;99.90
23186;DHT22;11761;51.324;4.590;2022-09-12T04:22:41;12.50;99.90
23186;DHT22;11761;51.324;4.590;2022-09-12T04:25:08;12.40;99.90
23186;DHT22;11761;51.324;4.590;2022-09-12T04:27:36;12.50;99.90
23186;DHT22;11761;51.324;4.590;2022-09-12T04:30:03;12.50;99.90
23186;DHT22;11761;51.324;4.590;2022-09-12T04:32:30;12.50;99.90
23186;DHT22;11761;51.324;4.590;2022-09-12T04:34:57;12.50;99.90
23186;DHT22;11761;51.324;4.590;2022-09-12T04:37:23;12.50;99.90
23186;DHT22;11761;51.324;4.590;2022-09-12T04:39:49;12.50;99.90
23186;DHT22;11761;51.324;4.590;2022-09-12T04:42:16;12.50;99.90
23186;DHT22;11761;51.324;4.590;2022-09-12T04:44:42;12.50;99.90
23186;DHT22;11761;51.324;4.590;2022-09-12T04:47:09;12.50;99.90
23186;DHT22;11761;51.324;4.590;2022-09-12T04:49:35;12.50;99.90
23186;DHT22;11761;51.324;4.590;2022-09-12T04:52:01;12.50;99.90
23186;DHT22;11761;51.324;4.590;2022-09-12T04:54:27;12.40;99.90
23186;DHT22;11761;51.324;4.590;2022-09-12T04:56:53;12.50;99.90
23186;DHT22;11761;51.324;4.590;2022-09-12T04:59:21;12.50;99.90
23186;DHT22;11761;51.324;4.590;2022-09-12T05:01:47;12.40;99.90
23186;DHT22;11761;51.324;4.590;2022-09-12T05:04:13;12.40;99.90
23186;DHT22;11761;51.324;4.590;2022-09-12T05:06:41;12.40;99.90
23186;DHT22;11761;51.324;4.590;2022-09-12T05:09:09;12.40;99.90
23186;DHT22;11761;51.324;4.590;2022-09-12T05:11:37;12.40;99.90
23186;DHT22;11761;51.324;4.590;2022-09-12T05:14:04;12.40;99.90
23186;DHT22;11761;51.324;4.590;2022-09-12T05:16:30;12.30;99.90
23186;DHT22;11761;51.324;4.590;2022-09-12T05:18:58;12.40;99.90
23186;DHT22;11761;51.324;4.590;2022-09-12T05:21:25;12.40;99.90
23186;DHT22;11761;51.324;4.590;2022-09-12T05:23:55;12.40;99.90
23186;DHT22;11761;51.324;4.590;2022-09-12T05:26:22;12.40;99.90
23186;DHT22;11761;51.324;4.590;2022-09-12T05:28:49;12.40;99.90
23186;DHT22;11761;51.324;4.590;2022-09-12T05:33:48;12.40;99.90
23186;DHT22;11761;51.324;4.590;2022-09-12T05:36:26;12.40;99.90
23186;DHT22;11761;51.324;4.590;2022-09-12T05:38:54;12.40;99.90
23186;DHT22;11761;51.324;4.590;2022-09-12T05:41:26;12.40;99.90
23186;DHT22;11761;51.324;4.590;2022-09-12T05:43:54;12.40;99.90
23186;DHT22;11761;51.324;4.590;2022-09-12T05:46:23;12.40;99.90
23186;DHT22;11761;51.324;4.590;2022-09-12T05:48:51;12.40;99.90
23186;DHT22;11761;51.324;4.590;2022-09-12T05:51:21;12.40;99.90
23186;DHT22;11761;51.324;4.590;2022-09-12T05:53:50;12.30;99.90
23186;DHT22;11761;51.324;4.590;2022-09-12T05:56:19;12.40;99.90
23186;DHT22;11761;51.324;4.590;2022-09-12T05:58:47;12.50;99.90
23186;DHT22;11761;51.324;4.590;2022-09-12T06:01:17;12.50;99.90
23186;DHT22;11761;51.324;4.590;2022-09-12T06:03:46;12.60;99.90
23186;DHT22;11761;51.324;4.590;2022-09-12T06:06:14;12.60;99.90
23186;DHT22;11761;51.324;4.590;2022-09-12T06:08:43;12.60;99.90
23186;DHT22;11761;51.324;4.590;2022-09-12T06:11:12;12.70;99.90
23186;DHT22;11761;51.324;4.590;2022-09-12T06:13:40;12.70;99.90
23186;DHT22;11761;51.324;4.590;2022-09-12T06:16:16;12.80;99.90
23186;DHT22;11761;51.324;4.590;2022-09-12T06:18:50;12.90;99.90
23186;DHT22;11761;51.324;4.590;2022-09-12T06:21:17;12.90;99.90
23186;DHT22;11761;51.324;4.590;2022-09-12T06:23:53;13.00;99.90
23186;DHT22;11761;51.324;4.590;2022-09-12T06:26:20;13.10;99.90
23186;DHT22;11761;51.324;4.590;2022-09-12T06:28:48;13.30;99.90
23186;DHT22;11761;51.324;4.590;2022-09-12T06:31:17;13.50;99.90
23186;DHT22;11761;51.324;4.590;2022-09-12T06:33:46;13.60;99.90
23186;DHT22;11761;51.324;4.590;2022-09-12T06:38:43;14.20;99.90
23186;DHT22;11761;51.324;4.590;2022-09-12T06:41:14;15.80;99.90
23186;DHT22;11761;51.324;4.590;2022-09-12T06:43:41;18.20;99.90
23186;DHT22;11761;51.324;4.590;2022-09-12T06:46:08;19.70;99.90
23186;DHT22;11761;51.324;4.590;2022-09-12T06:48:35;20.10;99.90
23186;DHT22;11761;51.324;4.590;2022-09-12T06:51:08;18.30;99.90
23186;DHT22;11761;51.324;4.590;2022-09-12T06:53:34;17.60;99.90
23186;DHT22;11761;51.324;4.590;2022-09-12T06:56:06;18.30;99.90
23186;DHT22;11761;51.324;4.590;2022-09-12T06:58:33;17.00;99.90
23186;DHT22;11761;51.324;4.590;2022-09-12T07:01:19;16.20;99.90
23186;DHT22;11761;51.324;4.590;2022-09-12T07:03:50;17.00;99.90
23186;DHT22;11761;51.324;4.590;2022-09-12T07:06:18;17.10;99.90
23186;DHT22;11761;51.324;4.590;2022-09-12T07:08:45;16.80;99.90
23186;DHT22;11761;51.324;4.590;2022-09-12T07:13:42;16.40;99.90
23186;DHT22;11761;51.324;4.590;2022-09-12T07:16:09;16.30;99.90
23186;DHT22;11761;51.324;4.590;2022-09-12T07:18:36;16.20;99.90
23186;DHT22;11761;51.324;4.590;2022-09-12T07:21:08;16.30;99.90
23186;DHT22;11761;51.324;4.590;2022-09-12T07:23:35;16.20;99.90
23186;DHT22;11761;51.324;4.590;2022-09-12T07:26:01;16.30;99.90
23186;DHT22;11761;51.324;4.590;2022-09-12T07:28:30;16.40;99.90
23186;DHT22;11761;51.324;4.590;2022-09-12T07:30:57;16.70;99.90
23186;DHT22;11761;51.324;4.590;2022-09-12T07:33:29;16.80;99.90
23186;DHT22;11761;51.324;4.590;2022-09-12T07:36:00;17.00;99.90
23186;DHT22;11761;51.324;4.590;2022-09-12T07:38:26;17.10;99.90
23186;DHT22;11761;51.324;4.590;2022-09-12T07:40:52;17.20;99.90
23186;DHT22;11761;51.324;4.590;2022-09-12T07:43:18;17.30;99.90
23186;DHT22;11761;51.324;4.590;2022-09-12T07:45:45;17.30;99.90
23186;DHT22;11761;51.324;4.590;2022-09-12T07:48:11;17.40;99.90
23186;DHT22;11761;51.324;4.590;2022-09-12T07:50:37;17.40;99.90
23186;DHT22;11761;51.324;4.590;2022-09-12T07:53:03;17.50;99.90
23186;DHT22;11761;51.324;4.590;2022-09-12T07:55:30;17.30;99.90
23186;DHT22;11761;51.324;4.590;2022-09-12T07:57:56;17.30;99.90
23186;DHT22;11761;51.324;4.590;2022-09-12T08:00:22;17.40;99.90
23186;DHT22;11761;51.324;4.590;2022-09-12T08:02:51;17.60;99.90
23186;DHT22;11761;51.324;4.590;2022-09-12T08:05:19;17.60;99.90
23186;DHT22;11761;51.324;4.590;2022-09-12T08:07:46;17.70;99.90
23186;DHT22;11761;51.324;4.590;2022-09-12T08:10:12;18.00;99.90
23186;DHT22;11761;51.324;4.590;2022-09-12T08:12:38;18.00;99.90
23186;DHT22;11761;51.324;4.590;2022-09-12T08:15:05;18.10;99.90
23186;DHT22;11761;51.324;4.590;2022-09-12T08:17:31;17.90;99.90
23186;DHT22;11761;51.324;4.590;2022-09-12T08:19:57;18.00;99.90
23186;DHT22;11761;51.324;4.590;2022-09-12T08:22:23;18.00;99.90
23186;DHT22;11761;51.324;4.590;2022-09-12T08:24:50;18.10;99.90
23186;DHT22;11761;51.324;4.590;2022-09-12T08:27:16;18.20;99.90
23186;DHT22;11761;51.324;4.590;2022-09-12T08:29:42;18.30;99.90
23186;DHT22;11761;51.324;4.590;2022-09-12T08:32:09;18.40;99.90
23186;DHT22;11761;51.324;4.590;2022-09-12T08:34:35;18.40;99.90
23186;DHT22;11761;51.324;4.590;2022-09-12T08:37:01;18.60;99.90
23186;DHT22;11761;51.324;4.590;2022-09-12T08:39:28;18.70;99.90
23186;DHT22;11761;51.324;4.590;2022-09-12T08:42:05;19.00;99.90
23186;DHT22;11761;51.324;4.590;2022-09-12T08:52:56;21.40;99.90
23186;DHT22;11761;51.324;4.590;2022-09-12T08:55:45;21.60;99.90
23186;DHT22;11761;51.324;4.590;2022-09-12T08:58:20;20.40;99.90
23186;DHT22;11761;51.324;4.590;2022-09-12T09:06:34;19.80;99.90
23186;DHT22;11761;51.324;4.590;2022-09-12T09:09:17;19.80;99.90
23186;DHT22;11761;51.324;4.590;2022-09-12T09:17:45;19.90;99.90
23186;DHT22;11761;51.324;4.590;2022-09-12T09:23:32;20.00;99.90
23186;DHT22;11761;51.324;4.590;2022-09-12T09:26:19;20.10;99.90
23186;DHT22;11761;51.324;4.590;2022-09-12T09:31:21;20.30;99.90
23186;DHT22;11761;51.324;4.590;2022-09-12T09:33:52;20.30;99.90
23186;DHT22;11761;51.324;4.590;2022-09-12T09:36:42;20.20;99.90
23186;DHT22;11761;51.324;4.590;2022-09-12T09:42:32;20.50;99.90
23186;DHT22;11761;51.324;4.590;2022-09-12T09:45:12;20.60;99.90
23186;DHT22;11761;51.324;4.590;2022-09-12T09:47:41;20.60;99.90
23186;DHT22;11761;51.324;4.590;2022-09-12T09:50:13;20.80;99.90
23186;DHT22;11761;51.324;4.590;2022-09-12T09:52:41;20.90;99.90
23186;DHT22;11761;51.324;4.590;2022-09-12T09:55:14;20.90;99.90
23186;DHT22;11761;51.324;4.590;2022-09-12T09:57:43;20.90;99.90
23186;DHT22;11761;51.324;4.590;2022-09-12T10:00:29;20.90;99.90
23186;DHT22;11761;51.324;4.590;2022-09-12T10:05:28;21.10;99.90
23186;DHT22;11761;51.324;4.590;2022-09-12T10:07:54;21.20;99.90
23186;DHT22;11761;51.324;4.590;2022-09-12T10:10:23;21.40;99.90
23186;DHT22;11761;51.324;4.590;2022-09-12T10:12:50;21.40;99.90
23186;DHT22;11761;51.324;4.590;2022-09-12T10:15:30;21.20;99.90
23186;DHT22;11761;51.324;4.590;2022-09-12T10:17:57;21.20;99.90
23186;DHT22;11761;51.324;4.590;2022-09-12T10:20:40;21.30;99.90
23186;DHT22;11761;51.324;4.590;2022-09-12T10:23:33;21.60;99.90
23186;DHT22;11761;51.324;4.590;2022-09-12T10:26:07;21.70;99.90
23186;DHT22;11761;51.324;4.590;2022-09-12T10:28:43;22.00;99.90
23186;DHT22;11761;51.324;4.590;2022-09-12T10:31:15;21.80;99.90
23186;DHT22;11761;51.324;4.590;2022-09-12T10:33:48;21.90;99.90
23186;DHT22;11761;51.324;4.590;2022-09-12T10:36:19;22.10;99.90
23186;DHT22;11761;51.324;4.590;2022-09-12T10:38:54;22.00;99.90
23186;DHT22;11761;51.324;4.590;2022-09-12T10:41:22;22.00;99.90
23186;DHT22;11761;51.324;4.590;2022-09-12T10:43:49;22.00;99.90
23186;DHT22;11761;51.324;4.590;2022-09-12T10:48:46;22.30;99.90
23186;DHT22;11761;51.324;4.590;2022-09-12T10:53:53;22.60;99.90
23186;DHT22;11761;51.324;4.590;2022-09-12T10:56:34;22.50;99.90
23186;DHT22;11761;51.324;4.590;2022-09-12T11:04:29;22.60;99.90
23186;DHT22;11761;51.324;4.590;2022-09-12T11:18:42;22.90;99.90
23186;DHT22;11761;51.324;4.590;2022-09-12T11:39:49;23.00;99.90
23186;DHT22;11761;51.324;4.590;2022-09-12T11:42:24;23.00;99.90
23186;DHT22;11761;51.324;4.590;2022-09-12T11:45:14;23.10;99.90
23186;DHT22;11761;51.324;4.590;2022-09-12T11:47:45;23.00;99.90
23186;DHT22;11761;51.324;4.590;2022-09-12T11:50:40;23.10;99.90
23186;DHT22;11761;51.324;4.590;2022-09-12T11:53:22;23.10;99.90
23186;DHT22;11761;51.324;4.590;2022-09-12T11:58:30;22.90;99.90
23186;DHT22;11761;51.324;4.590;2022-09-12T12:03:41;23.00;99.90
23186;DHT22;11761;51.324;4.590;2022-09-12T12:06:16;23.00;99.90
23186;DHT22;11761;51.324;4.590;2022-09-12T12:08:47;23.10;99.90
23186;DHT22;11761;51.324;4.590;2022-09-12T12:11:26;23.20;99.90
23186;DHT22;11761;51.324;4.590;2022-09-12T12:13:58;23.40;99.90
23186;DHT22;11761;51.324;4.590;2022-09-12T12:16:26;23.20;99.90
23186;DHT22;11761;51.324;4.590;2022-09-12T12:19:40;23.20;99.90
23186;DHT22;11761;51.324;4.590;2022-09-12T12:21:49;23.30;99.90
23186;DHT22;11761;51.324;4.590;2022-09-12T12:24:26;23.50;99.90
23186;DHT22;11761;51.324;4.590;2022-09-12T12:27:22;23.30;99.90
23186;DHT22;11761;51.324;4.590;2022-09-12T12:29:48;23.30;99.90
23186;DHT22;11761;51.324;4.590;2022-09-12T12:32:19;23.60;99.90
23186;DHT22;11761;51.324;4.590;2022-09-12T12:34:46;23.60;99.90
23186;DHT22;11761;51.324;4.590;2022-09-12T12:47:55;23.70;99.90
23186;DHT22;11761;51.324;4.590;2022-09-12T12:50:26;23.70;99.90
23186;DHT22;11761;51.324;4.590;2022-09-12T12:53:04;23.70;99.90
23186;DHT22;11761;51.324;4.590;2022-09-12T12:55:37;23.40;99.90
23186;DHT22;11761;51.324;4.590;2022-09-12T12:58:48;23.30;99.90
23186;DHT22;11761;51.324;4.590;2022-09-12T13:01:16;23.20;99.90
23186;DHT22;11761;51.324;4.590;2022-09-12T13:04:30;23.40;99.90
23186;DHT22;11761;51.324;4.590;2022-09-12T13:06:37;23.70;99.90
23186;DHT22;11761;51.324;4.590;2022-09-12T13:09:24;23.80;99.90
23186;DHT22;11761;51.324;4.590;2022-09-12T13:12:03;23.90;99.90
23186;DHT22;11761;51.324;4.590;2022-09-12T13:17:29;23.90;99.90
23186;DHT22;11761;51.324;4.590;2022-09-12T13:22:42;23.90;99.90
23186;DHT22;11761;51.324;4.590;2022-09-12T13:28:16;24.00;99.90
23186;DHT22;11761;51.324;4.590;2022-09-12T13:30:55;23.80;99.90
23186;DHT22;11761;51.324;4.590;2022-09-12T13:33:54;23.90;99.90
23186;DHT22;11761;51.324;4.590;2022-09-12T13:39:19;23.90;99.90
23186;DHT22;11761;51.324;4.590;2022-09-12T13:44:20;23.70;99.90
23186;DHT22;11761;51.324;4.590;2022-09-12T13:46:48;23.60;99.90
23186;DHT22;11761;51.324;4.590;2022-09-12T13:49:35;23.50;99.90
23186;DHT22;11761;51.324;4.590;2022-09-12T13:52:23;23.30;99.90
23186;DHT22;11761;51.324;4.590;2022-09-12T13:54:55;23.40;99.90
23186;DHT22;11761;51.324;4.590;2022-09-12T13:57:37;23.40;99.90
23186;DHT22;11761;51.324;4.590;2022-09-12T14:00:16;23.30;99.90
23186;DHT22;11761;51.324;4.590;2022-09-12T14:02:47;23.20;99.90
23186;DHT22;11761;51.324;4.590;2022-09-12T14:05:18;23.30;99.90
23186;DHT22;11761;51.324;4.590;2022-09-12T14:07:53;23.30;99.90
23186;DHT22;11761;51.324;4.590;2022-09-12T14:12:53;23.50;99.90
23186;DHT22;11761;51.324;4.590;2022-09-12T14:15:29;23.60;99.90
23186;DHT22;11761;51.324;4.590;2022-09-12T14:17:58;23.80;99.90
23186;DHT22;11761;51.324;4.590;2022-09-12T14:20:28;23.60;99.90
23186;DHT22;11761;51.324;4.590;2022-09-12T14:23:17;23.60;99.90
23186;DHT22;11761;51.324;4.590;2022-09-12T14:25:45;23.60;99.90
23186;DHT22;11761;51.324;4.590;2022-09-12T14:28:14;23.60;99.90
23186;DHT22;11761;51.324;4.590;2022-09-12T14:31:04;23.60;99.90
23186;DHT22;11761;51.324;4.590;2022-09-12T14:36:48;23.50;99.90
23186;DHT22;11761;51.324;4.590;2022-09-12T14:39:39;23.70;99.90
23186;DHT22;11761;51.324;4.590;2022-09-12T14:42:12;23.70;99.90
23186;DHT22;11761;51.324;4.590;2022-09-12T14:44:39;23.80;99.90
23186;DHT22;11761;51.324;4.590;2022-09-12T14:47:14;23.70;99.90
23186;DHT22;11761;51.324;4.590;2022-09-12T14:49:44;23.60;99.90
23186;DHT22;11761;51.324;4.590;2022-09-12T14:54:59;23.80;99.90
23186;DHT22;11761;51.324;4.590;2022-09-12T14:57:37;23.70;99.90
23186;DHT22;11761;51.324;4.590;2022-09-12T15:00:24;23.60;99.90
23186;DHT22;11761;51.324;4.590;2022-09-12T15:02:51;23.50;99.90
23186;DHT22;11761;51.324;4.590;2022-09-12T15:05:21;23.60;99.90
23186;DHT22;11761;51.324;4.590;2022-09-12T15:10:25;23.50;99.90
23186;DHT22;11761;51.324;4.590;2022-09-12T15:13:11;23.40;99.90
23186;DHT22;11761;51.324;4.590;2022-09-12T15:15:41;23.50;99.90
23186;DHT22;11761;51.324;4.590;2022-09-12T15:18:07;23.50;99.90
23186;DHT22;11761;51.324;4.590;2022-09-12T15:20:39;23.50;99.90
23186;DHT22;11761;51.324;4.590;2022-09-12T15:23:18;23.50;99.90
23186;DHT22;11761;51.324;4.590;2022-09-12T15:25:45;23.50;99.90
23186;DHT22;11761;51.324;4.590;2022-09-12T15:28:17;23.50;99.90
23186;DHT22;11761;51.324;4.590;2022-09-12T15:30:44;23.50;99.90
23186;DHT22;11761;51.324;4.590;2022-09-12T15:33:11;23.50;99.90
23186;DHT22;11761;51.324;4.590;2022-09-12T15:35:37;23.60;99.90
23186;DHT22;11761;51.324;4.590;2022-09-12T15:38:04;23.50;99.90
23186;DHT22;11761;51.324;4.590;2022-09-12T15:40:30;23.50;99.90
23186;DHT22;11761;51.324;4.590;2022-09-12T15:42:56;23.60;99.90
23186;DHT22;11761;51.324;4.590;2022-09-12T15:45:25;23.50;99.90
23186;DHT22;11761;51.324;4.590;2022-09-12T15:47:53;23.50;99.90
23186;DHT22;11761;51.324;4.590;2022-09-12T15:50:19;23.30;99.90
23186;DHT22;11761;51.324;4.590;2022-09-12T15:52:46;23.20;99.90
23186;DHT22;11761;51.324;4.590;2022-09-12T15:55:20;23.20;99.90
23186;DHT22;11761;51.324;4.590;2022-09-12T15:57:48;23.20;99.90
23186;DHT22;11761;51.324;4.590;2022-09-12T16:00:15;23.20;99.90
23186;DHT22;11761;51.324;4.590;2022-09-12T16:02:46;23.30;99.90
23186;DHT22;11761;51.324;4.590;2022-09-12T16:05:23;23.10;99.90
23186;DHT22;11761;51.324;4.590;2022-09-12T16:07:51;22.90;99.90
23186;DHT22;11761;51.324;4.590;2022-09-12T16:10:27;22.80;99.90
23186;DHT22;11761;51.324;4.590;2022-09-12T16:12:54;22.60;99.90
23186;DHT22;11761;51.324;4.590;2022-09-12T16:15:22;22.50;99.90
23186;DHT22;11761;51.324;4.590;2022-09-12T16:17:48;22.50;99.90
23186;DHT22;11761;51.324;4.590;2022-09-12T16:20:15;22.60;99.90
23186;DHT22;11761;51.324;4.590;2022-09-12T16:22:41;22.60;99.90
23186;DHT22;11761;51.324;4.590;2022-09-12T16:25:08;22.60;99.90
23186;DHT22;11761;51.324;4.590;2022-09-12T16:27:34;22.60;99.90
23186;DHT22;11761;51.324;4.590;2022-09-12T16:30:01;22.40;99.90
23186;DHT22;11761;51.324;4.590;2022-09-12T16:32:27;22.20;99.90
23186;DHT22;11761;51.324;4.590;2022-09-12T16:34:53;22.00;99.90
23186;DHT22;11761;51.324;4.590;2022-09-12T16:37:19;21.80;99.90
23186;DHT22;11761;51.324;4.590;2022-09-12T16:39:45;21.70;99.90
23186;DHT22;11761;51.324;4.590;2022-09-12T16:42:17;21.70;99.90
23186;DHT22;11761;51.324;4.590;2022-09-12T16:44:45;21.60;99.90
23186;DHT22;11761;51.324;4.590;2022-09-12T16:47:12;21.50;99.90
23186;DHT22;11761;51.324;4.590;2022-09-12T16:49:38;21.40;99.90
23186;DHT22;11761;51.324;4.590;2022-09-12T16:52:04;21.40;99.90
23186;DHT22;11761;51.324;4.590;2022-09-12T16:54:31;21.30;99.90
23186;DHT22;11761;51.324;4.590;2022-09-12T16:56:57;21.20;99.90
23186;DHT22;11761;51.324;4.590;2022-09-12T16:59:24;21.10;99.90
23186;DHT22;11761;51.324;4.590;2022-09-12T17:01:50;21.10;99.90
23186;DHT22;11761;51.324;4.590;2022-09-12T17:04:17;21.00;99.90
23186;DHT22;11761;51.324;4.590;2022-09-12T17:06:43;21.00;99.90
23186;DHT22;11761;51.324;4.590;2022-09-12T17:09:10;20.90;99.90
23186;DHT22;11761;51.324;4.590;2022-09-12T17:11:37;20.90;99.90
23186;DHT22;11761;51.324;4.590;2022-09-12T17:14:05;20.80;99.90
23186;DHT22;11761;51.324;4.590;2022-09-12T17:16:33;20.80;99.90
23186;DHT22;11761;51.324;4.590;2022-09-12T17:19:00;20.70;99.90
23186;DHT22;11761;51.324;4.590;2022-09-12T17:21:26;20.60;99.90
23186;DHT22;11761;51.324;4.590;2022-09-12T17:23:52;20.60;99.90
23186;DHT22;11761;51.324;4.590;2022-09-12T17:26:19;20.50;99.90
23186;DHT22;11761;51.324;4.590;2022-09-12T17:28:45;20.50;99.90
23186;DHT22;11761;51.324;4.590;2022-09-12T17:31:13;20.50;99.90
23186;DHT22;11761;51.324;4.590;2022-09-12T17:33:40;20.40;99.90
23186;DHT22;11761;51.324;4.590;2022-09-12T17:36:12;20.30;99.90
23186;DHT22;11761;51.324;4.590;2022-09-12T17:38:41;20.30;99.90
23186;DHT22;11761;51.324;4.590;2022-09-12T17:41:10;20.20;99.90
23186;DHT22;11761;51.324;4.590;2022-09-12T17:43:42;20.10;99.90
23186;DHT22;11761;51.324;4.590;2022-09-12T17:46:08;20.00;99.90
23186;DHT22;11761;51.324;4.590;2022-09-12T17:48:35;19.90;99.90
23186;DHT22;11761;51.324;4.590;2022-09-12T17:51:12;19.80;99.90
23186;DHT22;11761;51.324;4.590;2022-09-12T17:53:39;19.70;99.90
23186;DHT22;11761;51.324;4.590;2022-09-12T17:56:06;19.60;99.90
23186;DHT22;11761;51.324;4.590;2022-09-12T17:58:33;19.40;99.90
23186;DHT22;11761;51.324;4.590;2022-09-12T18:01:05;19.30;99.90
23186;DHT22;11761;51.324;4.590;2022-09-12T18:03:54;19.30;99.90
23186;DHT22;11761;51.324;4.590;2022-09-12T18:06:22;19.20;99.90
23186;DHT22;11761;51.324;4.590;2022-09-12T18:08:49;19.10;99.90
23186;DHT22;11761;51.324;4.590;2022-09-12T18:11:15;19.10;99.90
23186;DHT22;11761;51.324;4.590;2022-09-12T18:13:41;19.00;99.90
23186;DHT22;11761;51.324;4.590;2022-09-12T18:16:11;18.90;99.90
23186;DHT22;11761;51.324;4.590;2022-09-12T18:18:38;18.80;99.90
23186;DHT22;11761;51.324;4.590;2022-09-12T18:21:06;18.70;99.90
23186;DHT22;11761;51.324;4.590;2022-09-12T18:23:33;18.60;99.90
23186;DHT22;11761;51.324;4.590;2022-09-12T18:26:05;18.40;99.90
23186;DHT22;11761;51.324;4.590;2022-09-12T18:28:36;18.30;99.90
23186;DHT22;11761;51.324;4.590;2022-09-12T18:31:03;18.20;99.90
23186;DHT22;11761;51.324;4.590;2022-09-12T18:33:30;18.20;99.90
23186;DHT22;11761;51.324;4.590;2022-09-12T18:35:56;18.20;99.90
23186;DHT22;11761;51.324;4.590;2022-09-12T18:38:22;18.10;99.90
23186;DHT22;11761;51.324;4.590;2022-09-12T18:40:48;18.00;99.90
23186;DHT22;11761;51.324;4.590;2022-09-12T18:43:14;18.00;99.90
23186;DHT22;11761;51.324;4.590;2022-09-12T18:45:40;18.00;99.90